Airfield :
LOGIN :

Register | Disclaimer

   EN    FR    IT 

 










Legend :    VFR   Marginal VFR   IFR   Intensive IFR   Very Intensive IFR
Visi :
Ceiling :
>= 8 km
>= 3000ft
5 to 8 km
1000 to 3000 ft
1500m to 5 km
500 to 1000 ft
800 to 1500m
200 to 500 ft
< 800m
< 200 ft
Symbols :   Thunderstorms  Fog  Heavy snow  Heavy precipitations  Wind > 20 kt
SIGMETs :     Misc.  Thunderstorms  Icing  Turbulence  Mountain Waves  Volcanic Ashes







- Airport Elevation : 510 ft


LJCE - Cerklje

CURRENT METAR :
  • 221200Z 25007KT 200V300 CAVOK 23/05 Q1011 RMK BLU

EXPIRED METARs :
  • 221130Z 25008KT 190V300 CAVOK 23/04 Q1011 RMK BLU
  • 221100Z 25008KT 210V290 CAVOK 22/05 Q1012 RMK BLU
  • 221030Z 26009KT 200V290 CAVOK 21/04 Q1012 RMK BLU
  • 221000Z 27011KT 240V320 CAVOK 21/03 Q1013 RMK BLU
  • 220930Z 26011KT 220V280 CAVOK 20/04 Q1013 RMK BLU

TAF TAF LJCE
Valid from the 22 at 12:00 until the 22 at 21:00 UTC


221100Z 2212/2221 26007KT CAVOK
No reported NOTAMs for that airfield.



MET'MAP, your aeronautical weather chart ! - Copyright ORBIFLY December 2007 - Disclaimer

ORBIFLY MET'MAP TEAM :

Programming & Development : Alexandra Zaïnal
Concept & Development : Baudouin d'Aumeries
Co-Development & Prog : Marc-Olivier Méhu
Technical & hardware support : Manuel Goepfert

Contact : metmap@orbifly.com




SOURCES & CREDITS :

   NOAA